This is the latest recevied weather packets stored in our database for station/object OK1KKY-18. If no packets are shown the sender has not sent any weather packets the latest 10 day(s).
| Time | Temp. | Humidity | Pressure | Rain* | Wind** | Luminosity | Snow |
|---|---|---|---|---|---|---|---|
| 1787913446 | 23.33° C | 51% | 1015 hPa | - | - | - | - |
| 1787912846 | 22.78° C | 52% | 1015.3 hPa | - | - | - | - |
| 1787912246 | 22.78° C | 51% | 1015.6 hPa | - | - | - | - |
| 1787911646 | 22.22° C | 52% | 1016 hPa | - | - | - | - |
| 1787911046 | 22.22° C | 53% | 1016.2 hPa | - | - | - | - |
| 1787910446 | 22.22° C | 53% | 1016.5 hPa | - | - | - | - |
| 1787909846 | 21.67° C | 54% | 1016.7 hPa | - | - | - | - |
| 1787909249 | 21.67° C | 55% | 1016.8 hPa | - | - | - | - |
| 1787908645 | 21.67° C | 56% | 1016.7 hPa | - | - | - | - |
| 1787908044 | 21.11° C | 55% | 1016.9 hPa | - | - | - | - |
| 1787906844 | 20° C | 57% | 1017 hPa | - | - | - | - |
| 1787906244 | 20.56° C | 57% | 1017.1 hPa | - | - | - | - |
| 1787905644 | 20.56° C | 56% | 1017.1 hPa | - | - | - | - |
| 1787905044 | 20.56° C | 57% | 1017 hPa | - | - | - | - |
| 1787904444 | 20.56° C | 56% | 1017.3 hPa | - | - | - | - |
| 1787903844 | 20.56° C | 58% | 1017.6 hPa | - | - | - | - |
| 1787903245 | 20° C | 59% | 1017.6 hPa | - | - | - | - |
| 1787902644 | 19.44° C | 60% | 1017.7 hPa | - | - | - | - |
| 1787902044 | 19.44° C | 62% | 1018 hPa | - | - | - | - |
| 1787901445 | 19.44° C | 62% | 1017.8 hPa | - | - | - | - |
| 1787900844 | 18.89° C | 63% | 1017.9 hPa | - | - | - | - |
| 1787900244 | 18.33° C | 66% | 1018.1 hPa | - | - | - | - |
| 1787899645 | 17.78° C | 68% | 1018 hPa | - | - | - | - |
| 1787899044 | 17.22° C | 73% | 1017.9 hPa | - | - | - | - |
| 1787898444 | 15.56° C | 86% | 1018 hPa | - | - | - | - |
* Rain since midnight (hover to see other rain measurements)
** Current wind speed in m/s (hover to see current wind gust speed)